createdAt,value
2023-05-11T00:00:38.164Z,23.40
2023-05-11T00:03:04.703Z,18.30
2023-05-11T00:05:31.216Z,21.00
2023-05-11T00:07:57.698Z,18.30
2023-05-11T00:10:24.309Z,17.60
2023-05-11T00:12:50.761Z,18.10
2023-05-11T00:15:17.491Z,19.80
2023-05-11T00:17:44.041Z,17.30
2023-05-11T00:20:11.288Z,20.30
2023-05-11T00:22:38.341Z,19.90
2023-05-11T00:25:05.538Z,20.20
2023-05-11T00:27:32.034Z,21.40
2023-05-11T00:29:58.824Z,19.70
2023-05-11T00:32:25.332Z,21.00
2023-05-11T00:34:51.800Z,24.00
2023-05-11T00:37:18.263Z,22.80
2023-05-11T00:39:44.745Z,20.90
2023-05-11T00:42:11.331Z,20.50
2023-05-11T00:44:37.886Z,22.00
2023-05-11T00:47:04.623Z,21.90
2023-05-11T00:49:31.398Z,21.20
2023-05-11T00:51:57.912Z,21.60
2023-05-11T00:54:25.219Z,20.70
2023-05-11T00:56:51.916Z,19.40
2023-05-11T00:59:18.969Z,19.50
2023-05-11T01:01:45.794Z,20.90
2023-05-11T01:04:13.548Z,20.40
2023-05-11T01:07:04.555Z,23.90
2023-05-11T01:09:54.158Z,19.00
2023-05-11T01:12:33.022Z,21.00
2023-05-11T01:15:10.650Z,23.00
2023-05-11T01:17:52.889Z,18.30
2023-05-11T01:20:27.080Z,20.40
2023-05-11T01:23:15.741Z,19.60
2023-05-11T01:25:48.160Z,16.40
2023-05-11T01:28:43.014Z,19.80
2023-05-11T01:31:11.609Z,20.60
2023-05-11T01:33:43.776Z,21.30
2023-05-11T01:36:12.813Z,27.40
2023-05-11T01:38:42.175Z,21.00
2023-05-11T01:41:35.897Z,22.00
2023-05-11T01:44:07.542Z,18.60
2023-05-11T01:46:34.615Z,22.00
2023-05-11T01:49:05.953Z,20.00
2023-05-11T01:51:42.009Z,20.50
2023-05-11T01:54:10.087Z,21.80
2023-05-11T01:56:38.602Z,21.40
2023-05-11T01:59:05.866Z,24.10
2023-05-11T02:01:35.147Z,19.90
2023-05-11T02:04:03.558Z,18.90
2023-05-11T02:06:32.242Z,23.30
2023-05-11T02:09:00.731Z,23.80
2023-05-11T02:11:30.969Z,22.20
2023-05-11T02:13:59.274Z,27.20
2023-05-11T02:16:27.048Z,22.30
2023-05-11T02:18:55.697Z,26.70
2023-05-11T02:21:22.979Z,20.60
2023-05-11T02:23:50.772Z,22.70
2023-05-11T02:26:17.442Z,19.80
2023-05-11T02:28:43.985Z,19.70
2023-05-11T02:31:17.610Z,19.10
2023-05-11T02:33:49.559Z,28.40
2023-05-11T02:36:21.462Z,24.60
2023-05-11T02:38:49.130Z,23.10
2023-05-11T02:41:21.792Z,27.90
2023-05-11T02:43:52.133Z,21.20
2023-05-11T02:46:24.285Z,22.70
2023-05-11T02:48:58.107Z,19.80
2023-05-11T02:51:34.956Z,21.10
2023-05-11T02:54:02.456Z,20.20
2023-05-11T02:56:29.718Z,20.70
2023-05-11T02:58:56.380Z,23.40
2023-05-11T03:01:24.153Z,21.20
2023-05-11T03:03:51.000Z,18.70
2023-05-11T03:06:17.607Z,20.90
2023-05-11T03:08:44.307Z,23.90
2023-05-11T03:11:13.351Z,22.00
2023-05-11T03:13:40.037Z,24.30
2023-05-11T03:16:07.789Z,23.00
2023-05-11T03:18:36.161Z,22.70
2023-05-11T03:21:03.347Z,24.20
2023-05-11T03:23:30.647Z,22.90
2023-05-11T03:25:58.899Z,28.10
2023-05-11T03:28:26.951Z,25.70
2023-05-11T03:30:54.277Z,28.80
2023-05-11T03:33:21.349Z,27.50
2023-05-11T03:35:50.757Z,25.40
2023-05-11T03:38:18.916Z,25.90
2023-05-11T03:40:47.422Z,24.50
2023-05-11T03:43:18.137Z,23.70
2023-05-11T03:45:46.899Z,25.70
2023-05-11T03:48:15.649Z,27.30
2023-05-11T03:50:43.598Z,21.10
2023-05-11T03:53:11.107Z,23.50
2023-05-11T03:55:37.974Z,18.10
2023-05-11T03:58:11.507Z,15.60
2023-05-11T04:00:42.011Z,16.70
2023-05-11T04:03:11.727Z,10.70
2023-05-11T04:05:38.346Z,14.50
2023-05-11T04:08:05.345Z,13.30
2023-05-11T04:10:32.092Z,13.20
2023-05-11T04:12:58.741Z,14.60
2023-05-11T04:15:25.178Z,13.70
2023-05-11T04:17:51.751Z,16.20
2023-05-11T04:20:18.519Z,11.60
2023-05-11T04:22:45.149Z,12.20
2023-05-11T04:25:11.861Z,13.80
2023-05-11T04:27:38.317Z,10.60
2023-05-11T04:30:06.114Z,12.50
2023-05-11T04:32:32.677Z,13.20
2023-05-11T04:34:59.192Z,10.50
2023-05-11T04:37:25.751Z,12.20
2023-05-11T04:39:52.899Z,11.10
2023-05-11T04:42:19.566Z,11.30
2023-05-11T04:44:46.338Z,12.30
2023-05-11T04:47:14.417Z,15.00
2023-05-11T04:49:40.949Z,14.90
2023-05-11T04:52:08.227Z,14.20
2023-05-11T04:54:34.901Z,14.00
2023-05-11T04:57:01.420Z,12.40
2023-05-11T04:59:28.034Z,12.10
2023-05-11T05:01:54.622Z,11.70
2023-05-11T05:04:21.244Z,12.40
2023-05-11T05:06:47.767Z,12.50
2023-05-11T05:09:14.267Z,10.70
2023-05-11T05:11:40.825Z,11.90
2023-05-11T05:14:07.271Z,13.90
2023-05-11T05:16:33.786Z,12.80
2023-05-11T05:19:00.520Z,9.70
2023-05-11T05:21:27.134Z,12.10
2023-05-11T05:23:53.682Z,10.60
2023-05-11T05:26:20.224Z,11.00
2023-05-11T05:28:47.248Z,10.90
2023-05-11T05:31:14.000Z,14.70
2023-05-11T05:33:41.184Z,12.20
2023-05-11T05:36:08.093Z,11.90
2023-05-11T05:38:34.570Z,13.80
2023-05-11T05:41:01.094Z,9.20
2023-05-11T05:43:27.573Z,12.50
2023-05-11T05:45:54.453Z,13.00
2023-05-11T05:48:21.025Z,10.20
2023-05-11T05:50:47.598Z,11.70
2023-05-11T05:53:14.416Z,13.10
2023-05-11T05:55:40.848Z,10.10
2023-05-11T05:58:07.283Z,12.80
2023-05-11T06:00:35.486Z,12.20
2023-05-11T06:03:02.082Z,16.20
2023-05-11T06:05:28.791Z,13.20
2023-05-11T06:08:09.325Z,15.40
2023-05-11T06:10:36.882Z,11.30
2023-05-11T06:13:03.425Z,10.30
2023-05-11T06:15:29.864Z,14.20
2023-05-11T06:17:56.855Z,9.60
2023-05-11T06:20:23.468Z,9.40
2023-05-11T06:22:49.990Z,10.10
2023-05-11T06:25:16.741Z,11.70
2023-05-11T06:27:43.255Z,7.20
2023-05-11T06:30:10.319Z,8.80
2023-05-11T06:32:36.847Z,6.60
2023-05-11T06:35:03.382Z,13.80
2023-05-11T06:37:30.675Z,9.50
2023-05-11T06:39:58.580Z,7.10
2023-05-11T06:42:25.467Z,8.80
2023-05-11T06:44:51.955Z,15.20
2023-05-11T06:47:18.541Z,10.90
2023-05-11T06:49:45.110Z,9.50
2023-05-11T06:52:11.557Z,7.40
2023-05-11T06:54:38.112Z,11.30
2023-05-11T06:57:04.721Z,10.20
2023-05-11T06:59:31.277Z,7.30
2023-05-11T07:01:58.265Z,7.30
2023-05-11T07:04:24.963Z,9.50
2023-05-11T07:06:51.678Z,9.00
2023-05-11T07:09:18.168Z,7.80
2023-05-11T07:11:44.603Z,8.00
2023-05-11T07:14:11.046Z,7.80
2023-05-11T07:16:37.654Z,8.30
2023-05-11T07:19:05.662Z,7.50
2023-05-11T07:21:32.327Z,6.30
2023-05-11T07:23:58.758Z,6.30
2023-05-11T07:26:25.309Z,8.80
2023-05-11T07:28:52.032Z,6.90
2023-05-11T07:31:18.645Z,7.10
2023-05-11T07:33:45.221Z,6.10
2023-05-11T07:36:11.816Z,6.30
2023-05-11T07:38:38.386Z,9.00
2023-05-11T07:41:06.874Z,7.50
2023-05-11T07:43:33.910Z,9.60
2023-05-11T07:46:00.345Z,5.90
2023-05-11T07:48:26.846Z,5.20
2023-05-11T07:50:53.397Z,5.10
2023-05-11T07:53:19.839Z,7.90
2023-05-11T07:55:46.674Z,5.10
2023-05-11T07:58:13.220Z,3.20
2023-05-11T08:00:39.695Z,3.70
2023-05-11T08:03:06.232Z,3.60
2023-05-11T08:05:32.841Z,2.80
2023-05-11T08:07:59.521Z,3.00
2023-05-11T08:10:26.022Z,3.20
2023-05-11T08:12:52.531Z,3.80
2023-05-11T08:15:19.448Z,4.70
2023-05-11T08:17:46.443Z,3.40
2023-05-11T08:20:13.542Z,3.30
2023-05-11T08:22:39.992Z,2.80
2023-05-11T08:25:07.494Z,3.60
2023-05-11T08:27:33.980Z,1.80
2023-05-11T08:30:01.184Z,4.40
2023-05-11T08:32:27.861Z,3.80
2023-05-11T08:34:54.401Z,1.90
2023-05-11T08:37:21.442Z,2.30
2023-05-11T08:39:48.146Z,2.80
2023-05-11T08:42:16.505Z,2.70
2023-05-11T08:44:44.816Z,2.50
2023-05-11T08:49:42.000Z,4.40
2023-05-11T08:52:09.507Z,2.30
2023-05-11T08:54:36.248Z,4.30
2023-05-11T08:57:04.028Z,5.50
2023-05-11T08:59:32.380Z,4.10
2023-05-11T09:02:00.306Z,2.10
2023-05-11T09:04:27.925Z,4.80
2023-05-11T09:06:55.078Z,2.60
2023-05-11T09:09:21.823Z,4.80
2023-05-11T09:11:49.648Z,2.20
2023-05-11T09:14:16.356Z,4.90
2023-05-11T09:16:43.006Z,3.40
2023-05-11T09:19:14.959Z,2.60
2023-05-11T09:21:41.816Z,6.80
2023-05-11T09:24:12.253Z,4.50
2023-05-11T09:26:39.130Z,2.30
2023-05-11T09:29:05.759Z,5.10
2023-05-11T09:31:46.983Z,5.20
2023-05-11T09:34:17.930Z,3.00
2023-05-11T09:36:46.300Z,2.40
2023-05-11T09:39:15.894Z,6.60
2023-05-11T09:41:43.175Z,6.90
2023-05-11T09:44:16.658Z,3.30
2023-05-11T09:46:45.028Z,9.40
2023-05-11T09:49:12.459Z,4.30
2023-05-11T09:51:40.979Z,2.80
2023-05-11T09:54:19.319Z,3.30
2023-05-11T09:56:55.370Z,3.80
2023-05-11T09:59:41.718Z,2.50
2023-05-11T10:02:36.644Z,3.00
2023-05-11T10:05:11.692Z,2.50
2023-05-11T10:07:38.353Z,2.70
2023-05-11T10:10:07.113Z,2.60
2023-05-11T10:12:34.676Z,3.60
2023-05-11T10:15:03.500Z,3.80
2023-05-11T10:17:30.212Z,2.20
2023-05-11T10:19:57.920Z,2.90
2023-05-11T10:22:29.302Z,2.20
2023-05-11T10:25:00.035Z,2.50
2023-05-11T10:27:27.587Z,3.50
2023-05-11T10:29:54.197Z,3.30
2023-05-11T10:32:21.502Z,2.60
2023-05-11T10:34:48.605Z,3.20
2023-05-11T10:37:16.705Z,3.90
2023-05-11T10:39:48.428Z,3.40
2023-05-11T10:42:30.414Z,3.80
2023-05-11T10:45:22.362Z,2.90
2023-05-11T10:48:07.712Z,4.80
2023-05-11T10:51:00.210Z,2.20
2023-05-11T10:53:55.847Z,5.50
2023-05-11T10:56:57.656Z,4.10
2023-05-11T10:59:45.799Z,4.40
2023-05-11T11:02:12.366Z,3.10
2023-05-11T11:04:47.495Z,2.40
2023-05-11T11:07:14.015Z,3.90
2023-05-11T11:09:59.044Z,3.00
2023-05-11T11:12:26.744Z,4.30
2023-05-11T11:15:05.249Z,4.00
2023-05-11T11:17:36.115Z,4.50
2023-05-11T11:20:04.958Z,4.20
2023-05-11T11:22:34.423Z,2.70
2023-05-11T11:25:01.980Z,2.60
2023-05-11T11:27:40.799Z,2.60
2023-05-11T11:30:17.626Z,3.80
2023-05-11T11:32:46.185Z,4.30
2023-05-11T11:35:41.361Z,3.20
2023-05-11T11:38:12.701Z,4.10
2023-05-11T11:43:15.658Z,2.10
2023-05-11T11:45:55.812Z,2.50
2023-05-11T11:48:29.312Z,1.90
2023-05-11T11:51:16.059Z,2.80
2023-05-11T11:53:42.780Z,4.50
2023-05-11T11:56:29.192Z,3.70
2023-05-11T11:58:55.652Z,3.40
2023-05-11T12:01:25.473Z,2.30
2023-05-11T12:04:16.275Z,4.10
2023-05-11T12:06:45.754Z,2.40
2023-05-11T12:09:18.706Z,2.70
2023-05-11T12:11:46.741Z,2.20
2023-05-11T12:14:13.497Z,2.80
2023-05-11T12:16:40.060Z,4.00
2023-05-11T12:19:06.536Z,3.00
2023-05-11T12:21:33.530Z,2.00
2023-05-11T12:24:05.717Z,3.30
2023-05-11T12:26:33.479Z,3.80
2023-05-11T12:29:11.474Z,3.20
2023-05-11T12:31:45.883Z,3.50
2023-05-11T12:34:16.370Z,1.70
2023-05-11T12:36:44.952Z,2.00
2023-05-11T12:39:22.331Z,3.40
2023-05-11T12:41:50.248Z,3.50
2023-05-11T12:44:17.798Z,2.80
2023-05-11T12:46:46.650Z,2.90
2023-05-11T12:49:16.960Z,6.90
2023-05-11T12:52:05.717Z,2.80
2023-05-11T12:54:34.324Z,5.90
2023-05-11T12:57:02.320Z,3.20
2023-05-11T12:59:33.535Z,4.40
2023-05-11T13:02:20.537Z,4.70
2023-05-11T13:04:48.266Z,4.60
2023-05-11T13:07:25.999Z,5.50
2023-05-11T13:10:00.273Z,5.80
2023-05-11T13:12:30.253Z,2.20
2023-05-11T13:15:08.126Z,3.70
2023-05-11T13:17:37.146Z,2.20
2023-05-11T13:20:24.938Z,2.20
2023-05-11T13:22:51.897Z,2.60
2023-05-11T13:25:21.832Z,1.80
2023-05-11T13:27:48.616Z,2.70
2023-05-11T13:30:15.309Z,3.40
2023-05-11T13:32:41.918Z,5.00
2023-05-11T13:35:09.153Z,4.30
2023-05-11T13:37:35.589Z,4.10
2023-05-11T13:40:02.044Z,4.50
2023-05-11T13:42:28.600Z,3.30
2023-05-11T13:44:55.220Z,2.90
2023-05-11T13:47:21.664Z,3.30
2023-05-11T13:49:48.135Z,4.10
2023-05-11T13:52:14.583Z,2.60
2023-05-11T13:54:41.011Z,2.60
2023-05-11T13:57:07.839Z,2.90
2023-05-11T13:59:34.370Z,2.50
2023-05-11T14:02:01.012Z,2.30
2023-05-11T14:04:27.665Z,3.00
2023-05-11T14:06:54.111Z,1.90
2023-05-11T14:09:23.423Z,1.90
2023-05-11T14:11:50.136Z,3.90
2023-05-11T14:14:17.345Z,2.80
2023-05-11T14:16:43.858Z,1.10
2023-05-11T14:19:10.349Z,2.40
2023-05-11T14:21:37.486Z,1.80
2023-05-11T14:24:11.486Z,3.20
2023-05-11T14:26:39.775Z,3.80
2023-05-11T14:29:06.245Z,2.10
2023-05-11T14:31:35.422Z,2.80
2023-05-11T14:34:03.731Z,4.20
2023-05-11T14:36:30.506Z,2.30
2023-05-11T14:38:57.001Z,1.80
2023-05-11T14:41:23.582Z,2.20
2023-05-11T14:43:49.997Z,1.50
2023-05-11T14:46:17.032Z,1.80
2023-05-11T14:48:43.664Z,3.90
2023-05-11T14:51:10.178Z,2.20
2023-05-11T14:53:36.695Z,3.40
2023-05-11T14:56:03.762Z,1.80
2023-05-11T14:58:30.185Z,5.20
2023-05-11T15:00:56.603Z,2.80
2023-05-11T15:03:23.609Z,1.80
2023-05-11T15:05:50.062Z,3.00
2023-05-11T15:08:29.038Z,2.50
2023-05-11T15:13:23.226Z,4.20
2023-05-11T15:15:49.759Z,5.20
2023-05-11T15:18:16.333Z,2.80
2023-05-11T15:20:44.247Z,6.20
2023-05-11T15:23:10.956Z,2.40
2023-05-11T15:25:37.481Z,3.10
2023-05-11T15:28:03.992Z,3.70
2023-05-11T15:30:32.607Z,3.80
2023-05-11T15:32:59.746Z,2.30
2023-05-11T15:35:26.362Z,2.20
2023-05-11T15:37:52.804Z,2.80
2023-05-11T15:40:19.354Z,3.30
2023-05-11T15:42:45.990Z,3.70
2023-05-11T15:45:12.499Z,2.40
2023-05-11T15:47:39.022Z,7.00
2023-05-11T15:50:06.602Z,4.00
2023-05-11T15:52:33.005Z,5.80
2023-05-11T15:54:59.485Z,3.20
2023-05-11T15:57:25.979Z,2.90
2023-05-11T15:59:52.540Z,2.30
2023-05-11T16:02:19.090Z,4.60
2023-05-11T16:04:45.581Z,4.80
2023-05-11T16:07:12.018Z,4.10
2023-05-11T16:09:38.589Z,3.80
2023-05-11T16:12:05.639Z,3.10
2023-05-11T16:14:32.272Z,4.80
2023-05-11T16:17:01.320Z,2.60
2023-05-11T16:19:28.058Z,2.70
2023-05-11T16:21:54.876Z,1.90
2023-05-11T16:24:21.346Z,2.00
2023-05-11T16:26:47.740Z,3.90
2023-05-11T16:29:14.144Z,2.50
2023-05-11T16:31:40.831Z,2.10
2023-05-11T16:34:07.364Z,2.70
2023-05-11T16:36:33.850Z,3.80
2023-05-11T16:39:00.350Z,4.30
2023-05-11T16:41:26.922Z,4.40
2023-05-11T16:43:53.361Z,3.80
2023-05-11T16:46:19.975Z,5.60
2023-05-11T16:48:46.459Z,4.70
2023-05-11T16:51:13.003Z,3.70
2023-05-11T16:53:39.710Z,4.20
2023-05-11T16:56:06.262Z,7.90
2023-05-11T16:58:32.709Z,7.30
2023-05-11T17:00:59.711Z,5.70
2023-05-11T17:03:26.332Z,6.70
2023-05-11T17:05:53.232Z,3.80
2023-05-11T17:08:19.711Z,11.30
2023-05-11T17:10:46.222Z,6.10
2023-05-11T17:13:12.653Z,5.50
2023-05-11T17:15:39.303Z,5.50
2023-05-11T17:18:06.165Z,5.60
2023-05-11T17:20:32.749Z,5.40
2023-05-11T17:22:59.885Z,6.70
2023-05-11T17:25:26.370Z,6.20
2023-05-11T17:27:53.445Z,7.90
2023-05-11T17:30:20.946Z,5.20
2023-05-11T17:32:48.892Z,9.00
2023-05-11T17:35:15.877Z,7.30
2023-05-11T17:37:42.375Z,6.70
2023-05-11T17:40:09.471Z,6.80
2023-05-11T17:42:35.964Z,10.40
2023-05-11T17:45:02.526Z,8.10
2023-05-11T17:47:29.390Z,11.00
2023-05-11T17:49:55.974Z,10.90
2023-05-11T17:52:23.730Z,7.30
2023-05-11T17:54:50.481Z,8.30
2023-05-11T17:57:17.022Z,8.70
2023-05-11T17:59:43.534Z,9.80
2023-05-11T18:02:10.021Z,7.70
2023-05-11T18:04:36.464Z,9.60
2023-05-11T18:07:03.213Z,9.60
2023-05-11T18:09:29.629Z,9.00
2023-05-11T18:11:56.132Z,8.20
2023-05-11T18:14:22.652Z,6.30
2023-05-11T18:16:49.108Z,8.90
2023-05-11T18:19:15.662Z,7.50
2023-05-11T18:21:42.418Z,9.40
2023-05-11T18:24:08.907Z,6.50
2023-05-11T18:26:35.597Z,7.00
2023-05-11T18:29:02.078Z,7.40
2023-05-11T18:31:31.646Z,6.60
2023-05-11T18:33:58.243Z,5.40
2023-05-11T18:36:24.926Z,7.60
2023-05-11T18:38:51.462Z,8.30
2023-05-11T18:41:17.949Z,7.00
2023-05-11T18:43:44.621Z,6.20
2023-05-11T18:46:11.595Z,8.10
2023-05-11T18:48:37.996Z,6.50
2023-05-11T18:51:04.814Z,10.50
2023-05-11T18:53:32.063Z,8.30
2023-05-11T18:55:58.598Z,8.30
2023-05-11T18:58:25.117Z,7.10
2023-05-11T19:00:51.955Z,13.90
2023-05-11T19:03:20.113Z,9.10
2023-05-11T19:05:48.713Z,8.50
2023-05-11T19:08:15.232Z,7.90
2023-05-11T19:10:41.787Z,7.90
2023-05-11T19:13:08.340Z,8.30
2023-05-11T19:15:34.913Z,6.80
2023-05-11T19:18:01.760Z,6.20
2023-05-11T19:20:28.231Z,7.80
2023-05-11T19:22:54.680Z,7.50
2023-05-11T19:25:21.167Z,7.80
2023-05-11T19:27:47.725Z,11.50
2023-05-11T19:30:14.329Z,7.60
2023-05-11T19:32:42.428Z,11.80
2023-05-11T19:35:11.080Z,10.30
2023-05-11T19:37:37.706Z,13.10
2023-05-11T19:40:37.172Z,15.70
2023-05-11T19:42:51.961Z,13.10
2023-05-11T19:45:18.568Z,17.60
2023-05-11T19:47:45.132Z,17.60
2023-05-11T19:50:11.582Z,18.40
2023-05-11T19:52:38.207Z,19.30
2023-05-11T19:55:05.342Z,15.10
2023-05-11T19:57:32.432Z,14.50
2023-05-11T19:59:58.854Z,17.50
2023-05-11T20:02:25.505Z,19.30
2023-05-11T20:04:52.172Z,16.60
2023-05-11T20:07:18.607Z,15.80
2023-05-11T20:09:45.301Z,18.30
2023-05-11T20:12:11.804Z,18.50
2023-05-11T20:14:38.251Z,17.50
2023-05-11T20:17:05.112Z,21.00
2023-05-11T20:19:31.562Z,20.70
2023-05-11T20:21:58.160Z,19.20
2023-05-11T20:24:24.668Z,22.00
2023-05-11T20:26:51.520Z,19.70
2023-05-11T20:29:18.231Z,21.40
2023-05-11T20:31:44.794Z,23.80
2023-05-11T20:34:11.347Z,29.20
2023-05-11T20:36:38.032Z,32.80
2023-05-11T20:39:04.906Z,26.70
2023-05-11T20:41:32.790Z,25.00
2023-05-11T20:43:59.259Z,20.50
2023-05-11T20:46:25.858Z,23.60
2023-05-11T20:48:52.404Z,19.70
2023-05-11T20:51:18.885Z,22.50
2023-05-11T20:53:45.349Z,25.80
2023-05-11T20:56:11.869Z,26.60
2023-05-11T20:58:38.282Z,30.90
2023-05-11T21:01:04.779Z,30.00
2023-05-11T21:03:31.656Z,49.10
2023-05-11T21:05:58.285Z,40.70
2023-05-11T21:08:24.909Z,40.40
2023-05-11T21:10:51.646Z,44.30
2023-05-11T21:13:18.028Z,41.00
2023-05-11T21:15:44.652Z,31.60
2023-05-11T21:18:11.169Z,35.40
2023-05-11T21:20:37.798Z,36.20
2023-05-11T21:23:04.288Z,39.80
2023-05-11T21:25:31.000Z,23.10
2023-05-11T21:27:57.413Z,23.90
2023-05-11T21:30:23.872Z,19.30
2023-05-11T21:32:50.443Z,22.70
2023-05-11T21:35:17.042Z,16.50
2023-05-11T21:37:43.655Z,16.40
2023-05-11T21:40:11.261Z,18.00
2023-05-11T21:42:37.800Z,19.10
2023-05-11T21:45:04.975Z,23.90
2023-05-11T21:47:31.681Z,17.50
2023-05-11T21:49:58.870Z,21.50
2023-05-11T21:52:25.323Z,26.00
2023-05-11T21:54:51.861Z,21.10
2023-05-11T21:57:18.440Z,21.90
2023-05-11T21:59:44.990Z,22.60
2023-05-11T22:02:11.658Z,20.50
2023-05-11T22:04:38.221Z,21.10
2023-05-11T22:07:05.210Z,21.10
2023-05-11T22:09:31.818Z,20.80
2023-05-11T22:11:58.267Z,28.20
2023-05-11T22:14:24.727Z,28.60
2023-05-11T22:16:51.271Z,30.40
2023-05-11T22:19:17.684Z,26.90
2023-05-11T22:21:44.100Z,30.80
2023-05-11T22:24:10.618Z,26.90
2023-05-11T22:26:37.235Z,32.30
2023-05-11T22:29:03.889Z,27.00
2023-05-11T22:31:30.376Z,22.30
2023-05-11T22:33:57.110Z,19.00
2023-05-11T22:36:23.847Z,22.60
2023-05-11T22:38:50.313Z,24.60
2023-05-11T22:41:16.878Z,24.40
2023-05-11T22:43:43.360Z,26.40
2023-05-11T22:46:09.963Z,29.80
2023-05-11T22:48:36.671Z,25.80
2023-05-11T22:51:04.149Z,22.50
2023-05-11T22:53:30.674Z,31.20
2023-05-11T22:55:57.152Z,26.40
2023-05-11T22:58:23.655Z,26.30
2023-05-11T23:00:50.491Z,32.50
2023-05-11T23:03:17.015Z,32.60
2023-05-11T23:05:43.517Z,34.30
2023-05-11T23:08:10.176Z,33.20
2023-05-11T23:10:36.630Z,38.40
2023-05-11T23:13:03.127Z,32.60
2023-05-11T23:15:29.807Z,35.30
2023-05-11T23:17:56.351Z,35.20
2023-05-11T23:20:23.726Z,36.20
2023-05-11T23:22:50.268Z,31.70
2023-05-11T23:25:17.011Z,33.90
2023-05-11T23:27:43.556Z,32.80
2023-05-11T23:30:10.682Z,31.00
2023-05-11T23:32:43.576Z,35.90
2023-05-11T23:35:10.113Z,30.70
2023-05-11T23:37:36.701Z,29.90
2023-05-11T23:40:03.583Z,32.70
2023-05-11T23:42:30.453Z,31.90
2023-05-11T23:44:57.334Z,39.30
2023-05-11T23:47:24.228Z,33.50
2023-05-11T23:49:50.916Z,35.80
2023-05-11T23:52:17.753Z,36.40
2023-05-11T23:54:44.187Z,27.10
2023-05-11T23:57:10.834Z,25.60
2023-05-11T23:59:37.383Z,26.90
